Latest Weather Observations for Daly Waters

IDD60801

Issued at 3:31 pm CST Wednesday 22 February 2017 (issued every 30 minutes, with the page automatically refreshed every 10 minutes)

About weather observations | Map of weather stations | Latest weather observations for NT | Other Formats
Station Details ID: 014626 Name: DALY WATERS AIRSTRIP Lat: -16.26 Lon: 133.38 Height: 209.84 m
Data from the previous 72 hours. | See also: Recent months at Daly Waters
Date/Time
CST
Temp
°C
App
Temp
°C
Dew
Point
°C
Rel
Hum
%
Delta-T
°C
Wind Press
QNH
hPa
Press
MSL
hPa
Rain since
9am
mm
Dir  Spd
km/h
Gust
km/h
Spd
kts
Gust
kts
22/03:30pm 35.7 36.0 16.9 32 12.2 SSE 11 22 6 12 1008.2 1006.7 0.0
22/03:00pm 35.6 35.8 16.8 32 12.1 S 11 20 6 11 1008.3 1006.8 0.0
22/02:30pm 35.4 35.0 16.2 32 12.3 S 13 20 7 11 1008.5 1007.0 0.0
22/02:00pm 35.1 35.0 15.9 31 12.2 SSE 11 20 6 11 1009.0 1007.4 0.0
22/01:30pm 35.3 34.9 15.1 30 12.7 S 11 19 6 10 1009.4 1007.8 0.0
22/01:00pm 34.9 34.2 14.2 28 12.8 S 11 19 6 10 1009.8 1008.2 0.0
22/12:30pm 34.5 34.0 13.9 29 12.7 SSE 9 15 5 8 1010.3 1008.7 0.0
22/12:00pm 34.0 34.4 16.4 35 11.2 SE 9 15 5 8 1010.8 1009.2 0.0
22/11:30am 33.2 33.0 14.8 33 11.5 SSW 9 15 5 8 1011.1 1009.5 0.0
22/11:00am 32.6 33.5 16.0 36 10.5 SSW 6 15 3 8 1011.3 1009.8 0.0
22/10:30am 31.5 32.3 16.3 40 9.6 S 7 11 4 6 1011.5 1010.0 0.0
22/10:00am 30.1 31.4 17.2 46 8.2 SSW 6 13 3 7 1011.6 1010.1 0.0
22/09:30am 28.6 30.0 16.5 48 7.6 SW 4 6 2 3 1011.8 1010.3 0.0
22/09:00am 26.8 29.6 18.9 62 5.1 SSE 2 4 1 2 1011.9 1010.4 0.0
22/08:30am 24.2 28.1 20.3 79 2.6 CALM 0 0 0 0 1011.8 1010.3 0.0
22/08:00am 21.7 25.5 21.0 96 0.5 SSE 2 4 1 2 1011.4 1009.9 0.0
22/07:30am 19.6 22.8 18.9 96 0.4 CALM 0 0 0 0 1011.2 1009.7 0.0
22/07:00am 18.5 21.1 17.5 94 0.6 CALM 0 0 0 0 1011.0 1009.4 0.0
22/06:30am 18.4 21.0 17.4 94 0.6 CALM 0 0 0 0 1010.9 1009.3 0.0
22/06:00am 18.6 21.2 17.4 93 0.7 CALM 0 0 0 0 1010.6 1009.0 0.0
22/05:30am 18.7 21.3 17.4 92 0.8 CALM 0 0 0 0 1010.4 1008.8 0.0
22/05:00am 18.8 21.1 17.6 93 0.7 SE 2 4 1 2 1010.0 1008.4 0.0
22/04:30am 19.2 22.0 18.0 93 0.7 CALM 0 0 0 0 1009.6 1008.0 0.0
22/04:00am 19.4 22.3 18.1 92 0.8 CALM 0 0 0 0 1009.2 1007.6 0.0
22/03:30am 19.7 22.7 18.4 92 0.8 CALM 0 0 0 0 1009.0 1007.4 0.0
22/03:00am 19.9 22.9 18.4 91 0.9 CALM 0 2 0 1 1008.9 1007.3 0.0
22/02:30am 20.3 23.5 18.8 91 0.9 CALM 0 0 0 0 1009.1 1007.5 0.0
22/02:00am 20.6 23.4 18.9 90 1.1 WSW 2 2 1 1 1009.3 1007.7 0.0
22/01:30am 20.9 23.4 19.0 89 1.2 SW 4 4 2 2 1009.6 1008.0 0.0
22/01:00am 21.2 23.8 19.3 89 1.2 SW 4 4 2 2 1009.9 1008.3 0.0
22/12:30am 21.2 24.0 19.7 91 1.0 WSW 4 6 2 3 1010.2 1008.6 0.0
22/12:00am 21.5 24.6 19.6 89 1.2 WSW 2 2 1 1 1010.6 1009.0 0.0
 
Date/Time
CST
Temp
°C
App
Temp
°C
Dew
Point
°C
Rel
Hum
%
Delta-T
°C
Wind Press
QNH
hPa
Press
MSL
hPa
Rain since
9am
mm
Dir  Spd
km/h
Gust
km/h
Spd
kts
Gust
kts
21/11:30pm 21.8 24.7 19.9 89 1.2 WSW 4 6 2 3 1010.9 1009.3 0.0
21/11:00pm 22.1 26.0 20.4 90 1.1 CALM 0 0 0 0 1011.2 1009.7 0.0
21/10:30pm 22.1 25.8 20.0 88 1.4 CALM 0 0 0 0 1011.4 1009.9 0.0
21/10:00pm 22.5 26.3 20.2 87 1.5 CALM 0 0 0 0 1011.5 1010.0 0.0
21/09:30pm 22.9 26.5 20.6 87 1.5 ESE 2 4 1 2 1011.3 1009.8 0.0
21/09:00pm 23.2 26.8 19.8 81 2.2 CALM 0 0 0 0 1011.0 1009.4 0.0
21/08:30pm 24.1 27.2 19.6 76 2.9 SW 2 2 1 1 1010.8 1009.2 0.0
21/08:00pm 25.4 27.6 19.1 68 4.1 SW 6 6 3 3 1010.5 1008.9 0.0
21/07:30pm 26.6 28.0 16.5 54 6.3 SSW 4 6 2 3 1010.2 1008.6 0.0
21/07:00pm 29.4 29.8 14.8 41 9.0 SSW 6 9 3 5 1009.9 1008.3 0.0
21/06:30pm 31.0 30.5 13.7 34 10.5 SSW 9 17 5 9 1009.6 1008.0 0.0
21/06:00pm 32.4 32.1 14.5 33 11.1 S 9 19 5 10 1009.1 1007.5 0.0
21/05:30pm 32.6 31.3 13.8 32 11.5 SSW 13 22 7 12 1008.9 1007.3 0.0
21/05:00pm 32.9 31.9 14.5 33 11.4 S 13 22 7 12 1008.7 1007.1 0.0
21/04:30pm 33.5 33.6 15.5 34 11.3 S 9 19 5 10 1008.5 1007.0 0.0
21/04:00pm 33.3 32.0 14.8 32 11.5 SSW 15 28 8 15 1008.7 1007.1 0.0
21/03:30pm 33.5 33.0 15.0 32 11.6 S 11 20 6 11 1008.9 1007.3 0.0
21/03:00pm 33.2 31.7 15.2 33 11.3 SSW 17 26 9 14 1008.9 1007.3 0.0
21/02:30pm 33.0 32.3 15.5 35 11.0 S 13 28 7 15 1009.1 1007.5 0.0
21/02:00pm 32.9 32.3 16.7 38 10.3 S 15 28 8 15 1009.6 1008.0 0.0
21/01:30pm 32.6 32.1 16.8 38 10.1 S 15 26 8 14 1010.2 1008.6 0.0
21/01:00pm 32.1 30.9 16.0 38 10.2 S 17 26 9 14 1010.6 1009.0 0.0
21/12:30pm 31.9 31.0 15.8 38 10.1 SSE 15 24 8 13 1011.3 1009.8 0.0
21/12:00pm 31.5 30.9 16.6 40 9.5 SE 15 28 8 15 1011.6 1010.1 0.0
21/11:30am 31.3 32.2 18.3 46 8.5 S 11 19 6 10 1011.8 1010.3 0.0
21/11:00am 30.4 30.6 18.5 49 7.7 SSE 15 26 8 14 1012.0 1010.5 0.0
21/10:30am 29.9 29.6 18.3 49 7.5 SSE 17 24 9 13 1012.4 1010.9 0.0
21/10:00am 29.2 29.3 18.3 51 7.0 SSE 15 24 8 13 1012.3 1010.8 0.0
21/09:30am 28.7 28.6 16.9 48 7.5 SSE 13 24 7 13 1012.3 1010.8 0.0
21/09:00am 26.9 28.1 18.2 59 5.6 SSE 9 17 5 9 1012.3 1010.8 0.0
21/08:30am 24.9 27.2 18.6 68 4.0 SSE 4 7 2 4 1012.4 1010.9 0.0
21/08:00am 21.6 23.7 18.2 81 2.1 SSW 4 6 2 3 1012.2 1010.7 0.0
21/07:30am 18.9 21.7 17.9 94 0.6 CALM 0 0 0 0 1011.9 1010.4 0.0
21/07:00am 17.6 19.8 16.6 94 0.6 CALM 0 0 0 0 1011.4 1009.9 0.0
21/06:30am 17.4 19.1 16.3 93 0.7 SE 2 4 1 2 1011.1 1009.5 0.0
21/06:00am 17.6 19.8 16.5 93 0.7 CALM 0 2 0 1 1010.7 1009.1 0.0
21/05:30am 17.9 20.1 16.6 92 0.8 CALM 0 0 0 0 1010.4 1008.8 0.0
21/05:00am 18.2 20.6 16.9 92 0.8 CALM 0 0 0 0 1010.0 1008.4 0.0
21/04:30am 18.5 21.0 17.2 92 0.8 CALM 0 0 0 0 1009.8 1008.2 0.0
21/04:00am 18.6 21.0 17.1 91 0.9 CALM 0 0 0 0 1009.6 1008.0 0.0
21/03:30am 19.1 21.2 17.1 88 1.2 SSW 2 2 1 1 1009.4 1007.8 0.0
21/03:00am 19.3 20.7 17.3 88 1.2 SSW 6 6 3 3 1009.5 1007.9 0.0
21/02:30am 19.5 21.4 17.6 89 1.2 SSW 4 6 2 3 1009.7 1008.1 0.0
21/02:00am 19.7 21.3 17.8 89 1.2 SW 6 6 3 3 1009.9 1008.3 0.0
21/01:30am 19.9 21.7 18.4 91 0.9 SW 6 6 3 3 1010.2 1008.6 0.0
21/01:00am 20.2 22.9 18.7 91 0.9 SW 2 4 1 2 1010.6 1009.0 0.0
21/12:30am 20.5 22.9 18.8 90 1.1 SSW 4 6 2 3 1010.8 1009.2 0.0
21/12:00am 20.8 23.3 19.1 90 1.1 SW 4 4 2 2 1011.1 1009.5 0.0
 
Date/Time
CST
Temp
°C
App
Temp
°C
Dew
Point
°C
Rel
Hum
%
Delta-T
°C
Wind Press
QNH
hPa
Press
MSL
hPa
Rain since
9am
mm
Dir  Spd
km/h
Gust
km/h
Spd
kts
Gust
kts
20/11:30pm 21.1 23.7 19.2 89 1.2 SW 4 4 2 2 1011.5 1010.0 0.0
20/11:00pm 21.4 24.7 19.1 87 1.5 CALM 0 0 0 0 1011.6 1010.1 0.0
20/10:30pm 22.0 25.3 19.2 84 1.8 CALM 0 0 0 0 1011.6 1010.1 0.0
20/10:00pm 22.2 25.1 19.9 87 1.5 SSE 4 4 2 2 1011.4 1009.9 0.0
20/09:30pm 22.7 25.3 20.0 85 1.8 SSE 6 6 3 3 1011.1 1009.5 0.0
20/09:00pm 23.1 26.3 20.6 86 1.6 S 4 6 2 3 1010.8 1009.2 0.0
20/08:30pm 23.6 26.6 20.1 81 2.3 S 4 6 2 3 1010.6 1009.0 0.0
20/08:00pm 24.3 27.2 19.8 76 2.9 S 4 4 2 2 1010.2 1008.6 0.0
20/07:30pm 26.6 27.1 15.0 49 7.1 SSE 6 7 3 4 1009.7 1008.1 0.0
20/07:00pm 28.2 28.0 13.7 41 8.7 SSE 7 13 4 7 1009.2 1007.6 0.0
20/06:30pm 29.3 29.5 14.3 40 9.1 SSE 6 13 3 7 1008.7 1007.1 0.0
20/06:00pm 30.1 29.5 13.4 36 10.1 SE 9 19 5 10 1008.3 1006.8 0.0
20/05:30pm 31.0 30.2 12.8 32 10.9 SSE 9 19 5 10 1007.8 1006.3 0.0
20/05:00pm 31.5 30.5 13.3 33 11.0 SSE 11 20 6 11 1007.7 1006.2 0.0
20/04:30pm 31.8 30.6 14.0 34 10.9 SSE 13 19 7 10 1007.6 1006.1 0.0
20/04:00pm 31.6 29.8 13.4 33 11.0 SSE 15 22 8 12 1007.6 1006.1 0.0
20/03:30pm 31.7 30.7 13.5 33 11.1 SSE 11 19 6 10 1007.5 1006.0 0.0
20/03:00pm 31.6 29.1 12.4 31 11.5 S 17 30 9 16 1007.6 1006.1 0.0
20/02:30pm 32.0 30.9 14.2 34 10.9 SE 13 22 7 12 1007.8 1006.3 0.0
20/02:00pm 32.0 30.7 13.7 33 11.1 SSE 13 26 7 14 1008.0 1006.5 0.0
20/01:30pm 31.4 29.7 13.6 33 10.8 SE 15 26 8 14 1008.5 1007.0 0.0
20/01:00pm 30.4 27.8 11.9 32 10.9 SE 17 30 9 16 1009.2 1007.6 0.0
20/12:30pm 30.4 27.5 12.3 33 10.7 SE 19 30 10 16 1009.7 1008.1 0.0
20/12:00pm 29.8 28.1 13.5 36 9.8 SE 15 24 8 13 1010.0 1008.4 0.0
20/11:30am 30.0 27.9 13.7 37 9.9 SE 17 37 9 20 1010.2 1008.6 0.0
20/11:00am 28.6 25.6 12.5 37 9.5 SE 20 30 11 16 1010.5 1008.9 0.0
20/10:30am 27.4 24.1 11.0 36 9.4 SSE 19 28 10 15 1010.5 1008.9 0.0
20/10:00am 27.2 24.4 11.3 37 9.1 SE 17 33 9 18 1010.3 1008.7 0.0
20/09:30am 27.0 23.4 10.7 36 9.3 SE 20 32 11 17 1010.0 1008.4 0.0
20/09:00am 26.6 23.4 11.1 38 8.9 SE 19 32 10 17 1009.7 1008.1 0.0
20/08:30am 25.9 23.5 12.7 44 7.7 SE 17 32 9 17 1009.7 1008.1 0.0
20/08:00am 24.2 22.7 14.3 54 5.9 SSE 15 24 8 13 1009.5 1007.9 0.0
20/07:30am 22.0 22.7 16.1 69 3.6 S 7 13 4 7 1009.5 1007.9 0.0
20/07:00am 20.7 21.5 16.3 76 2.7 S 7 11 4 6 1009.0 1007.4 0.0
20/06:30am 19.4 21.0 17.0 86 1.5 S 4 7 2 4 1008.8 1007.2 0.0
20/06:00am 19.6 20.9 17.2 86 1.5 SSW 6 6 3 3 1008.2 1006.7 0.0
20/05:30am 20.4 22.0 17.0 81 2.1 S 4 6 2 3 1007.8 1006.3 0.0
20/05:00am 20.7 22.1 17.3 81 2.1 SSW 6 7 3 4 1007.6 1006.1 0.0
20/04:30am 20.9 22.4 17.7 82 2.0 S 6 9 3 5 1007.3 1005.8 0.0
20/04:00am 21.1 22.6 18.1 83 1.9 SSW 7 9 4 5 1007.4 1005.9 0.0
20/03:30am 21.0 22.8 18.4 85 1.6 SSW 6 7 3 4 1007.8 1006.3 0.0
20/03:00am 21.1 23.1 18.7 86 1.5 SSW 6 6 3 3 1008.2 1006.7 0.0
20/02:30am 21.5 23.9 18.9 85 1.7 SSW 4 6 2 3 1008.4 1006.9 0.0
20/02:00am 22.0 24.0 18.8 82 2.0 SW 6 6 3 3 1008.8 1007.2 0.0
20/01:30am 22.3 24.4 18.9 81 2.2 SSW 6 7 3 4 1008.9 1007.3 0.0
20/01:00am 22.5 24.7 19.3 82 2.1 SSW 6 7 3 4 1009.2 1007.6 0.0
20/12:30am 22.7 25.1 19.7 83 1.9 SW 6 7 3 4 1009.5 1007.9 0.0
20/12:00am 22.9 26.1 20.6 87 1.5 WSW 4 6 2 3 1009.6 1008.0 0.0
 
Date/Time
CST
Temp
°C
App
Temp
°C
Dew
Point
°C
Rel
Hum
%
Delta-T
°C
Wind Press
QNH
hPa
Press
MSL
hPa
Rain since
9am
mm
Dir  Spd
km/h
Gust
km/h
Spd
kts
Gust
kts
19/11:30pm 23.5 27.0 20.4 83 2.0 W 2 4 1 2 1009.7 1008.1 0.0
19/11:00pm 24.3 28.2 21.2 83 2.1 S 2 4 1 2 1009.8 1008.2 0.0
19/10:30pm 24.9 27.1 19.3 71 3.6 S 6 9 3 5 1009.9 1008.3 0.0
19/10:00pm 24.4 28.2 21.7 85 1.8 S 4 6 2 3 1009.7 1008.1 0.0
19/09:30pm 25.1 28.1 20.8 77 2.8 SE 6 9 3 5 1009.2 1007.6 0.0
19/09:00pm 25.1 29.1 22.0 83 2.1 SSE 4 6 2 3 1009.0 1007.4 0.0
19/08:30pm 25.5 30.1 22.4 83 2.1 S 2 2 1 1 1008.7 1007.1 0.0
19/08:00pm 26.5 30.6 21.5 74 3.4 SE 2 6 1 3 1008.2 1006.7 0.0
19/07:30pm 27.7 30.4 20.3 64 4.9 SE 6 9 3 5 1008.0 1006.5 0.0
19/07:00pm 28.5 30.9 20.0 60 5.6 SE 7 13 4 7 1007.8 1006.3 0.0
19/06:30pm 29.4 30.6 20.0 57 6.2 SSE 13 24 7 13 1007.4 1005.9 0.0
19/06:00pm 29.8 29.8 19.8 55 6.6 SE 19 28 10 15 1007.1 1005.6 0.0
19/05:30pm 30.6 31.2 20.2 53 6.9 SSE 17 30 9 16 1006.5 1004.9 0.0
19/05:00pm 30.6 31.3 20.5 54 6.8 SE 17 26 9 14 1006.2 1004.6 0.0
19/04:30pm 30.7 30.8 20.0 52 7.1 SSE 19 28 10 15 1006.0 1004.4 0.0
19/04:00pm 31.3 32.2 20.9 54 7.0 SSE 17 37 9 20 1005.8 1004.2 0.0

Other Formats:

Comma delimited format used in spreadsheet applications
http://www.bom.gov.au/fwo/IDD60801/IDD60801.94234.axf

JavaScript Object Notation format (JSON) in row-major order
http://www.bom.gov.au/fwo/IDD60801/IDD60801.94234.json